Time;durP1;ratioP1;P1;durP2;ratioP2;P2;SDS_P1;SDS_P2;PMS_P1;PMS_P2;Temp;Humidity;BMP_temperature;BMP_pressure;BME280_temperature;BME280_humidity;BME280_pressure;Samples;Min_cycle;Max_cycle;Signal;HPM_P1;HPM_P2
2023/10/13 00:01:34;;;;;;;26.33;11.68;;;;;;;16.41;100.00;101036.84;4998174;28;20399;-74
2023/10/13 00:04:01;;;;;;;29.67;11.70;;;;;;;16.41;100.00;101036.84;5000776;28;20026;-74
2023/10/13 00:06:27;;;;;;;24.55;9.82;;;;;;;16.41;100.00;101032.31;4999349;28;20026;-74
2023/10/13 00:08:52;;;;;;;22.33;9.05;;;;;;;16.41;100.00;101034.16;5007201;28;20467;-74
2023/10/13 00:11:18;;;;;;;23.63;9.77;;;;;;;16.41;100.00;101032.31;5003147;28;20156;-74
2023/10/13 00:13:50;;;;;;;22.33;9.25;;;;;;;16.40;100.00;101022.44;5008306;28;20168;-75
2023/10/13 00:16:22;;;;;;;24.10;9.05;;;;;;;16.40;100.00;101019.75;5004775;28;20132;-74
2023/10/13 00:18:48;;;;;;;21.10;8.85;;;;;;;16.40;100.00;101029.75;5012920;28;20518;-74
2023/10/13 00:21:19;;;;;;;25.48;9.85;;;;;;;16.39;100.00;101019.88;5007780;28;20351;-74
2023/10/13 00:23:54;;;;;;;25.33;9.77;;;;;;;16.38;100.00;101016.31;5004547;28;20121;-74
2023/10/13 00:26:27;;;;;;;21.33;9.07;;;;;;;16.38;100.00;101013.63;5005155;28;20358;-74
2023/10/13 00:29:08;;;;;;;22.15;8.85;;;;;;;16.38;100.00;101010.03;5010984;28;20523;-72
2023/10/13 00:31:38;;;;;;;22.88;9.27;;;;;;;16.36;100.00;101015.59;5008381;28;20033;-72
2023/10/13 00:34:25;;;;;;;21.23;8.73;;;;;;;16.35;100.00;101013.88;5015330;28;20471;-72
2023/10/13 00:39:36;;;;;;;20.67;8.75;;;;;;;16.34;100.00;101001.34;5010750;28;20037;-72
2023/10/13 00:42:08;;;;;;;20.85;9.40;;;;;;;16.33;100.00;100998.78;5008517;28;20026;-73
2023/10/13 00:44:44;;;;;;;22.25;9.00;;;;;;;16.32;100.00;100995.19;5001464;28;20030;-72
2023/10/13 00:47:16;;;;;;;22.85;8.55;;;;;;;16.32;100.00;101005.19;5008885;28;20014;-73
2023/10/13 00:49:43;;;;;;;24.50;9.95;;;;;;;16.30;100.00;100994.50;5001105;28;20029;-73
2023/10/13 00:52:12;;;;;;;23.27;9.00;;;;;;;16.29;100.00;100995.50;5004001;28;20120;-72
2023/10/13 00:54:38;;;;;;;23.95;8.10;;;;;;;16.29;100.00;100989.22;4993993;28;20025;-72
2023/10/13 00:57:07;;;;;;;24.10;8.77;;;;;;;16.28;100.00;100988.34;4984618;28;20030;-72
2023/10/13 00:59:36;;;;;;;25.23;8.55;;;;;;;16.28;100.00;100988.34;4987985;28;20034;-72
2023/10/13 01:02:37;;;;;;;;;;;;;;;16.32;100.00;100978.91;4994163;28;20040;-73
2023/10/13 01:04:48;;;;;;;21.65;9.07;;;;;;;16.27;100.00;100972.22;5003827;28;20283;-72
2023/10/13 01:07:15;;;;;;;20.85;8.20;;;;;;;16.26;100.00;100979.50;5009004;28;20034;-72
2023/10/13 01:09:46;;;;;;;21.33;8.40;;;;;;;16.25;100.00;100975.06;5009939;28;20783;-72
2023/10/13 01:12:12;;;;;;;24.05;8.20;;;;;;;16.24;100.00;100968.81;5008368;28;20017;-73
2023/10/13 01:14:40;;;;;;;22.48;7.15;;;;;;;16.24;100.00;100963.38;5004975;28;20022;-72
2023/10/13 01:17:06;;;;;;;21.48;8.02;;;;;;;16.23;100.00;100958.13;5011326;28;20033;-73
2023/10/13 01:19:38;;;;;;;21.05;7.65;;;;;;;16.23;100.00;100952.69;5004841;28;20458;-74
2023/10/13 01:22:06;;;;;;;20.50;7.45;;;;;;;16.21;100.00;100947.41;4993306;28;20033;-72
2023/10/13 01:24:34;;;;;;;21.63;7.25;;;;;;;16.21;100.00;100949.28;4990768;28;20095;-72
2023/10/13 01:27:08;;;;;;;20.90;7.97;;;;;;;16.20;100.00;100937.56;4994235;28;20042;-72
2023/10/13 01:29:34;;;;;;;20.17;7.13;;;;;;;16.20;100.00;100940.28;4988648;28;20080;-73
2023/10/13 01:31:59;;;;;;;23.05;7.25;;;;;;;16.20;100.00;100939.44;5011511;28;20034;-73
2023/10/13 01:34:24;;;;;;;20.20;7.50;;;;;;;16.19;100.00;100926.88;5012472;28;20045;-73
2023/10/13 01:36:51;;;;;;;20.05;7.03;;;;;;;16.20;100.00;100928.59;5011909;28;20077;-72
2023/10/13 01:39:17;;;;;;;21.63;7.35;;;;;;;16.20;100.00;100925.88;4990378;28;20494;-72
2023/10/13 01:41:43;;;;;;;21.15;6.75;;;;;;;16.18;100.00;100917.88;5008045;28;20117;-73
2023/10/13 01:44:11;;;;;;;19.98;7.07;;;;;;;16.18;100.00;100917.88;5002562;28;20113;-73
2023/10/13 01:46:37;;;;;;;19.52;7.15;;;;;;;16.18;100.00;100911.59;4985379;28;20471;-72
2023/10/13 01:49:03;;;;;;;22.15;6.80;;;;;;;16.16;100.00;100903.59;4988533;28;20113;-73
2023/10/13 01:51:28;;;;;;;20.33;7.50;;;;;;;16.16;100.00;100900.88;4972692;28;20037;-72
2023/10/13 01:53:56;;;;;;;19.73;6.95;;;;;;;16.16;100.00;100898.19;4991770;28;20037;-72
2023/10/13 01:56:29;;;;;;;22.95;7.88;;;;;;;16.17;100.00;100896.34;4965701;28;20495;-72
2023/10/13 01:58:54;;;;;;;21.33;7.65;;;;;;;16.18;100.00;100887.19;4977343;28;20023;-72
2023/10/13 02:01:29;;;;;;;23.17;7.57;;;;;;;16.17;100.00;100882.78;4969547;28;20100;-72
2023/10/13 02:04:06;;;;;;;19.98;8.20;;;;;;;16.17;100.00;100877.38;4969126;28;20034;-73
2023/10/13 02:06:33;;;;;;;20.65;7.35;;;;;;;16.17;100.00;100877.38;4991861;28;20522;-73
2023/10/13 02:09:12;;;;;;;21.35;7.53;;;;;;;16.16;100.00;100872.94;4985401;28;20132;-72
2023/10/13 02:11:47;;;;;;;19.73;7.82;;;;;;;16.17;100.00;100874.66;4980599;28;20551;-73
2023/10/13 02:14:16;;;;;;;22.23;9.70;;;;;;;16.18;100.00;100868.19;4988750;28;20022;-72
2023/10/13 02:16:42;;;;;;;21.35;8.15;;;;;;;16.17;100.00;100870.06;4990392;28;20089;-73
2023/10/13 02:19:08;;;;;;;20.83;8.65;;;;;;;16.18;100.00;100873.63;4991522;28;20109;-73
2023/10/13 02:21:39;;;;;;;21.83;8.25;;;;;;;16.17;100.00;100877.38;4989218;28;20382;-73
2023/10/13 02:24:12;;;;;;;23.73;9.75;;;;;;;16.18;100.00;100879.03;4990523;28;20026;-73
2023/10/13 02:26:41;;;;;;;21.40;9.10;;;;;;;16.18;100.00;100857.34;4988914;28;20037;-73
2023/10/13 02:29:10;;;;;;;22.30;10.20;;;;;;;16.19;100.00;100864.50;4990950;28;20068;-73
2023/10/13 02:31:37;;;;;;;25.42;10.20;;;;;;;16.18;100.00;100852.81;4990898;28;20276;-72
2023/10/13 02:34:13;;;;;;;23.45;10.07;;;;;;;16.18;100.00;100851.94;4991617;28;20022;-73
2023/10/13 02:36:51;;;;;;;22.27;9.77;;;;;;;16.19;100.00;100853.66;4988493;28;20088;-73
2023/10/13 02:39:24;;;;;;;23.15;11.15;;;;;;;16.18;100.00;100846.50;4986119;28;20034;-73
2023/10/13 02:41:50;;;;;;;24.92;11.98;;;;;;;16.18;100.00;100833.81;4970579;28;20109;-73
2023/10/13 02:44:31;;;;;;;26.85;12.27;;;;;;;16.19;100.00;100826.53;4970243;28;20440;-71
2023/10/13 02:46:57;;;;;;;26.13;11.65;;;;;;;16.19;100.00;100824.69;4989526;28;20377;-72
2023/10/13 02:49:36;;;;;;;30.02;12.27;;;;;;;16.19;100.00;100810.25;4991273;28;20088;-72
2023/10/13 02:52:07;;;;;;;;;;;;;;;16.22;100.00;100805.41;4990076;28;20033;-72
2023/10/13 02:54:39;;;;;;;26.48;12.73;;;;;;;16.21;100.00;100797.44;4992076;28;19919;-72
2023/10/13 02:57:05;;;;;;;26.67;12.43;;;;;;;16.22;100.00;100799.13;5006871;28;20446;-72
2023/10/13 02:59:34;;;;;;;27.20;14.35;;;;;;;16.21;100.00;100792.00;5012716;28;20029;-73
2023/10/13 03:04:47;;;;;;;26.65;14.35;;;;;;;16.22;100.00;100777.41;5009476;28;20513;-74
2023/10/13 03:07:19;;;;;;;28.38;15.48;;;;;;;16.22;100.00;100766.56;4990851;28;20026;-74
2023/10/13 03:09:50;;;;;;;27.13;14.00;;;;;;;16.22;100.00;100761.16;5004907;28;20030;-73
2023/10/13 03:12:16;;;;;;;25.92;13.82;;;;;;;16.23;100.00;100757.44;4988420;28;20367;-74
2023/10/13 03:14:42;;;;;;;27.85;13.63;;;;;;;16.23;100.00;100762.88;5007328;28;20391;-73
2023/10/13 03:17:14;;;;;;;29.70;14.77;;;;;;;16.23;100.00;100754.72;5008760;28;20028;-74
2023/10/13 03:19:51;;;;;;;29.70;14.95;;;;;;;16.25;100.00;100750.00;5003545;28;20033;-73
2023/10/13 03:22:18;;;;;;;26.45;13.85;;;;;;;16.26;100.00;100746.28;5005822;28;20057;-73
2023/10/13 03:24:47;;;;;;;29.08;16.38;;;;;;;16.27;100.00;100739.00;5007597;28;20037;-73
2023/10/13 03:27:23;;;;;;;28.60;15.88;;;;;;;16.27;100.00;100737.16;5004019;28;20034;-74
2023/10/13 03:29:54;;;;;;;31.05;16.25;;;;;;;16.28;100.00;100728.00;5004414;28;20123;-73
2023/10/13 03:32:20;;;;;;;31.70;18.13;;;;;;;16.30;100.00;100720.56;5007452;28;20356;-73
2023/10/13 03:37:54;;;;;;;31.75;18.52;;;;;;;16.31;100.00;100710.56;5009323;28;20111;-73
2023/10/13 03:42:58;;;;;;;29.17;16.60;;;;;;;16.33;100.00;100701.28;5004862;28;20099;-74
2023/10/13 03:45:27;;;;;;;33.53;17.00;;;;;;;16.34;100.00;100700.28;5004880;28;20367;-73
2023/10/13 03:47:53;;;;;;;31.10;17.50;;;;;;;16.33;100.00;100695.84;5000375;28;20407;-73
2023/10/13 03:50:32;;;;;;;30.70;19.35;;;;;;;16.35;100.00;100691.13;5005838;28;20064;-73
2023/10/13 03:53:00;;;;;;;35.60;18.20;;;;;;;16.37;100.00;100689.13;5018242;28;20033;-73
2023/10/13 03:55:29;;;;;;;28.83;17.08;;;;;;;16.37;100.00;100683.69;5008241;28;20525;-73
2023/10/13 03:57:54;;;;;;;33.08;18.25;;;;;;;16.39;100.00;100681.66;5008272;28;20141;-74
2023/10/13 04:00:31;;;;;;;32.45;19.63;;;;;;;16.40;100.00;100666.28;4986672;28;20124;-73
2023/10/13 04:05:40;;;;;;;31.38;18.08;;;;;;;16.41;100.00;100652.56;5006527;28;20036;-73
2023/10/13 04:08:46;;;;;;;29.90;17.67;;;;;;;16.43;100.00;100650.53;4988634;28;20088;-73
2023/10/13 04:21:41;;;;;;;30.52;16.10;;;;;;;16.50;100.00;100636.34;4999959;28;20041;-72
2023/10/13 04:29:46;;;;;;;27.27;15.40;;;;;;;16.55;100.00;100643.00;5007873;28;20036;-71
2023/10/13 04:32:15;;;;;;;29.30;14.82;;;;;;;16.55;100.00;100648.41;4998231;28;20065;-71
2023/10/13 04:34:46;;;;;;;31.55;16.13;;;;;;;16.57;100.00;100641.00;4997268;28;20382;-71
2023/10/13 04:37:32;;;;;;;27.67;14.45;;;;;;;16.60;100.00;100647.94;4999228;28;20030;-71
2023/10/13 04:40:09;;;;;;;32.45;14.63;;;;;;;16.61;100.00;100644.22;4986889;28;20022;-72
2023/10/13 04:42:49;;;;;;;24.30;13.18;;;;;;;16.62;100.00;100640.53;4983160;28;20036;-72
2023/10/13 04:45:38;;;;;;;25.42;13.15;;;;;;;16.62;100.00;100632.38;5006425;28;20120;-71
2023/10/13 04:50:56;;;;;;;26.13;12.68;;;;;;;16.65;100.00;100626.63;5004265;28;20036;-71
2023/10/13 04:53:33;;;;;;;24.35;12.55;;;;;;;16.66;100.00;100635.63;5000778;28;20563;-72
2023/10/13 05:45:24;;;;;;;25.05;8.40;;;;;;;16.74;100.00;100535.28;4924568;29;20083;-72
2023/10/13 05:48:01;;;;;;;21.55;8.10;;;;;;;16.75;100.00;100540.53;4923297;29;20063;-73
2023/10/13 06:31:05;;;;;;;21.45;8.40;;;;;;;16.67;100.00;100521.50;5005376;28;20076;-74
2023/10/13 06:33:33;;;;;;;21.73;8.25;;;;;;;16.67;100.00;100517.94;5008817;28;20036;-74
2023/10/13 06:35:59;;;;;;;23.50;10.45;;;;;;;16.67;100.00;100510.63;5006962;28;20377;-74
2023/10/13 06:38:24;;;;;;;21.05;7.88;;;;;;;16.67;100.00;100507.91;5009722;28;20117;-74
2023/10/13 06:40:52;;;;;;;21.50;7.80;;;;;;;16.67;100.00;100497.06;5009612;28;20104;-74
2023/10/13 06:43:21;;;;;;;21.98;8.65;;;;;;;16.68;100.00;100496.06;5001715;28;20106;-74
2023/10/13 06:45:56;;;;;;;22.30;9.00;;;;;;;16.68;100.00;100487.94;5004678;28;20034;-74
2023/10/13 06:48:23;;;;;;;24.70;9.20;;;;;;;16.69;100.00;100478.78;5003113;28;20188;-73
2023/10/13 06:50:52;;;;;;;22.20;8.60;;;;;;;16.70;100.00;100490.47;5001766;28;20477;-74
2023/10/13 06:53:20;;;;;;;26.13;8.40;;;;;;;16.71;100.00;100493.03;5001481;28;20026;-74
2023/10/13 06:55:52;;;;;;;25.93;9.03;;;;;;;16.72;100.00;100485.72;5000641;28;20033;-74
2023/10/13 06:58:23;;;;;;;24.90;9.60;;;;;;;16.73;100.00;100482.00;4983823;28;20026;-73
2023/10/13 07:00:55;;;;;;;23.23;8.80;;;;;;;16.74;100.00;100473.69;5000645;28;20342;-74
2023/10/13 07:03:22;;;;;;;22.52;8.32;;;;;;;16.75;100.00;100464.56;4981880;28;20124;-73
2023/10/13 07:05:47;;;;;;;22.98;7.78;;;;;;;16.76;100.00;100463.56;5003450;28;20040;-73
2023/10/13 07:08:14;;;;;;;21.27;7.95;;;;;;;16.76;100.00;100455.41;4999986;28;20030;-74
2023/10/13 07:11:05;;;;;;;28.15;9.20;;;;;;;16.77;100.00;100451.66;4997640;28;20482;-74
2023/10/13 07:13:30;;;;;;;23.20;8.68;;;;;;;16.80;100.00;100450.50;5000083;28;20036;-74
2023/10/13 07:16:05;;;;;;;25.63;7.88;;;;;;;16.81;100.00;100451.34;5005008;28;20041;-74
2023/10/13 07:18:36;;;;;;;29.92;8.73;;;;;;;16.82;100.00;100450.34;4985264;28;20018;-73
2023/10/13 07:21:09;;;;;;;21.77;8.00;;;;;;;16.82;100.00;100437.59;4998351;28;20034;-74
2023/10/13 07:23:35;;;;;;;23.33;8.85;;;;;;;16.83;100.00;100439.31;4993439;28;20379;-74
2023/10/13 07:26:04;;;;;;;22.08;8.30;;;;;;;16.85;100.00;100441.84;4998765;28;20053;-73
2023/10/13 07:28:30;;;;;;;21.13;7.93;;;;;;;16.86;100.00;100444.41;5005938;28;20486;-74
2023/10/13 07:33:25;;;;;;;24.20;7.88;;;;;;;16.90;100.00;100444.97;5007462;28;20048;-74
2023/10/13 07:39:20;;;;;;;28.50;9.25;;;;;;;16.93;100.00;100434.63;4992921;28;20108;-74
2023/10/13 07:41:51;;;;;;;26.10;9.15;;;;;;;16.96;100.00;100428.03;5005451;28;20117;-74
2023/10/13 07:44:19;;;;;;;26.02;8.90;;;;;;;17.01;100.00;100432.97;5005959;28;20148;-74
2023/10/13 07:46:52;;;;;;;21.05;8.20;;;;;;;17.01;100.00;100425.66;4999188;28;20461;-74
2023/10/13 07:49:20;;;;;;;24.77;8.35;;;;;;;17.03;100.00;100426.34;5002464;28;20083;-74
2023/10/13 07:51:49;;;;;;;22.35;8.38;;;;;;;17.04;100.00;100419.91;5007523;28;20037;-75
2023/10/13 07:54:24;;;;;;;25.33;8.77;;;;;;;17.05;100.00;100413.44;4995550;28;20463;-75
2023/10/13 07:56:50;;;;;;;24.02;8.23;;;;;;;17.06;100.00;100415.16;5014688;28;20370;-74
2023/10/13 07:59:16;;;;;;;25.23;8.38;;;;;;;17.07;100.00;100413.28;4989905;28;20124;-74
2023/10/13 08:01:45;;;;;;;25.38;8.75;;;;;;;17.08;100.00;100404.97;5005743;28;20481;-74
2023/10/13 08:06:36;;;;;;;24.98;8.77;;;;;;;17.15;100.00;100415.19;5007221;28;19917;-75
2023/10/13 08:09:08;;;;;;;23.95;8.25;;;;;;;17.14;100.00;100410.78;5005600;28;20399;-75
2023/10/13 08:11:37;;;;;;;23.40;8.70;;;;;;;17.16;100.00;100415.03;5007482;28;20506;-74
2023/10/13 08:14:11;;;;;;;23.15;8.68;;;;;;;17.16;100.00;100411.44;5006435;28;20428;-75
2023/10/13 08:19:19;;;;;;;23.00;8.90;;;;;;;17.23;100.00;100407.03;5005924;28;20118;-75
2023/10/13 08:21:51;;;;;;;24.40;9.05;;;;;;;17.25;100.00;100408.59;5006559;28;20037;-76
2023/10/13 08:24:25;;;;;;;20.92;7.75;;;;;;;17.29;100.00;100406.38;5007101;28;20026;-75
2023/10/13 08:39:58;;;;;;;23.45;8.13;;;;;;;17.49;100.00;100400.63;5005606;28;20386;-74
2023/10/13 08:48:31;;;;;;;24.23;8.43;;;;;;;17.59;100.00;100404.88;4999868;28;20529;-75
2023/10/13 08:53:27;;;;;;;22.15;7.78;;;;;;;17.62;100.00;100380.06;5008484;28;20030;-74
2023/10/13 08:56:18;;;;;;;26.35;7.40;;;;;;;17.65;100.00;100396.03;4986923;28;20044;-74
2023/10/13 09:01:48;;;;;;;23.20;7.25;;;;;;;17.72;100.00;100382.63;5002795;28;20434;-74
2023/10/13 09:04:21;;;;;;;23.08;7.55;;;;;;;17.75;100.00;100376.00;4987130;28;20038;-74
2023/10/13 09:07:08;;;;;;;22.13;8.07;;;;;;;17.78;100.00;100379.22;5016669;28;20041;-74
2023/10/13 09:13:00;;;;;;;28.33;8.52;;;;;;;17.80;100.00;100363.63;5002673;28;20503;-74
2023/10/13 09:17:48;;;;;;;20.63;7.50;;;;;;;17.82;100.00;100374.31;5010196;28;20034;-74
2023/10/13 09:25:36;;;;;;;23.73;8.15;;;;;;;17.88;100.00;100375.47;5006471;28;20042;-74
2023/10/13 09:28:10;;;;;;;23.25;8.40;;;;;;;17.88;100.00;100368.19;4989434;28;20052;-74
2023/10/13 09:30:49;;;;;;;24.52;8.45;;;;;;;17.92;100.00;100364.13;5006427;28;20037;-75
2023/10/13 09:33:32;;;;;;;20.58;7.68;;;;;;;17.91;100.00;100367.03;5010577;28;20117;-74
2023/10/13 09:35:59;;;;;;;22.00;7.80;;;;;;;17.92;100.00;100364.13;5011346;28;20026;-74
2023/10/13 09:38:31;;;;;;;21.15;8.10;;;;;;;17.95;100.00;100357.47;5006321;28;20034;-74
2023/10/13 09:40:57;;;;;;;21.08;7.72;;;;;;;17.98;100.00;100360.72;5006454;28;20121;-74
2023/10/13 09:43:25;;;;;;;21.25;7.63;;;;;;;18.01;100.00;100354.09;5009981;28;20036;-74
2023/10/13 09:46:02;;;;;;;23.48;8.10;;;;;;;18.05;100.00;100352.69;5009139;28;20040;-74
2023/10/13 09:48:45;;;;;;;22.27;7.80;;;;;;;18.07;100.00;100347.94;5014711;28;20117;-74
2023/10/13 09:51:19;;;;;;;24.92;7.93;;;;;;;18.08;100.00;100338.78;5010307;28;20030;-74
2023/10/13 09:53:53;;;;;;;24.40;7.90;;;;;;;18.10;100.00;100344.88;5010149;28;20026;-74
2023/10/13 09:56:26;;;;;;;24.48;7.55;;;;;;;18.14;100.00;100338.06;5010368;28;20127;-74
2023/10/13 09:59:24;;;;;;;29.02;8.65;;;;;;;18.18;100.00;100324.97;5009821;28;20030;-74
2023/10/13 10:01:58;;;;;;;19.67;7.97;;;;;;;18.21;100.00;100335.47;4998631;28;20096;-74
2023/10/13 10:04:23;;;;;;;29.10;8.90;;;;;;;18.25;100.00;100325.13;5009405;28;20014;-74
2023/10/13 10:07:08;;;;;;;22.80;7.82;;;;;;;18.30;100.00;100328.16;5009863;28;20364;-75
2023/10/13 10:09:34;;;;;;;26.52;8.95;;;;;;;18.33;100.00;100320.50;4991564;28;20419;-74
2023/10/13 10:12:02;;;;;;;21.40;7.68;;;;;;;18.33;100.00;100327.78;4992886;28;20471;-72
2023/10/13 10:14:46;;;;;;;22.65;8.45;;;;;;;18.34;100.00;100310.44;5008876;28;20030;-72
2023/10/13 10:17:13;;;;;;;27.67;9.00;;;;;;;18.32;100.00;100316.06;5009564;28;20407;-73
2023/10/13 10:19:55;;;;;;;25.08;8.75;;;;;;;18.37;100.00;100320.13;4991058;28;20384;-71
2023/10/13 10:22:35;;;;;;;23.15;8.70;;;;;;;18.37;100.00;100310.09;5010314;28;20065;-73
2023/10/13 10:25:06;;;;;;;23.63;7.70;;;;;;;18.40;100.00;100314.34;4988452;28;20152;-72
2023/10/13 10:27:33;;;;;;;25.58;8.80;;;;;;;18.42;100.00;100304.97;4992087;28;20084;-73
2023/10/13 10:29:59;;;;;;;25.95;8.85;;;;;;;18.45;100.00;100299.19;4992212;28;20041;-71
2023/10/13 10:32:40;;;;;;;21.50;7.93;;;;;;;18.50;100.00;100301.38;4992160;28;20026;-72
2023/10/13 10:35:20;;;;;;;22.55;7.88;;;;;;;18.51;100.00;100301.19;4990163;28;20108;-73
2023/10/13 10:37:48;;;;;;;21.65;8.55;;;;;;;18.55;100.00;100309.00;4999820;28;20495;-72
2023/10/13 10:40:47;;;;;;;24.25;9.68;;;;;;;18.56;100.00;100302.53;5010396;28;20546;-72
2023/10/13 10:43:08;;;;;;;21.33;8.23;;;;;;;18.61;100.00;100313.72;5009539;28;20045;-72
2023/10/13 10:45:45;;;;;;;23.77;8.57;;;;;;;18.59;100.00;100308.44;5006952;28;20052;-72
2023/10/13 10:48:18;;;;;;;19.80;7.28;;;;;;;18.63;100.00;100314.41;5001204;28;20445;-72
2023/10/13 10:50:54;;;;;;;25.52;9.88;;;;;;;18.64;100.00;100303.34;5002390;28;20494;-71
2023/10/13 10:53:33;;;;;;;23.42;7.70;;;;;;;18.64;100.00;100307.94;5011491;28;20071;-72
2023/10/13 10:56:05;;;;;;;23.83;8.82;;;;;;;18.65;100.00;100305.03;5002517;28;20034;-79
2023/10/13 10:58:43;;;;;;;25.73;8.35;;;;;;;18.69;100.00;100300.91;5000374;28;20040;-78
2023/10/13 11:01:18;;;;;;;25.25;8.73;;;;;;;18.77;100.00;100302.75;5001768;28;20041;-74
2023/10/13 11:06:55;;;;;;;24.10;8.40;;;;;;;18.88;100.00;100306.97;5007144;28;20082;-75
2023/10/13 11:09:47;;;;;;;23.20;8.65;;;;;;;18.92;100.00;100302.84;5007520;28;20029;-75
2023/10/13 11:12:24;;;;;;;24.17;8.60;;;;;;;18.96;100.00;100300.59;4990713;28;20038;-76
2023/10/13 11:15:00;;;;;;;25.23;8.82;;;;;;;19.03;100.00;100288.84;5003426;28;20121;-75
2023/10/13 11:17:29;;;;;;;28.77;9.77;;;;;;;19.02;100.00;100284.41;4992449;28;20025;-75
2023/10/13 11:19:55;;;;;;;20.40;8.27;;;;;;;19.03;100.00;100274.34;4984632;28;20480;-75
2023/10/13 11:22:41;;;;;;;22.88;9.07;;;;;;;19.03;100.00;100275.22;5013964;28;20088;-74
2023/10/13 11:25:09;;;;;;;26.73;9.45;;;;;;;19.08;100.00;100252.88;4992123;28;20163;-75
2023/10/13 11:30:15;;;;;;;21.70;8.43;;;;;;;19.15;100.00;100240.22;5005384;28;20044;-75
2023/10/13 11:32:43;;;;;;;23.75;8.43;;;;;;;19.20;100.00;100229.59;4988269;28;20289;-75
2023/10/13 11:35:20;;;;;;;23.95;9.50;;;;;;;19.23;100.00;100227.56;4985583;28;20030;-75
2023/10/13 11:37:56;;;;;;;21.85;7.32;;;;;;;19.27;100.00;100226.13;4984577;28;20034;-76
2023/10/13 11:43:23;;;;;;;23.27;7.47;;;;;;;19.36;100.00;100212.25;5002867;28;20067;-75
2023/10/13 11:48:38;;;;;;;23.70;8.82;;;;;;;19.44;100.00;100203.13;4965378;28;20042;-75
2023/10/13 11:51:07;;;;;;;27.63;9.35;;;;;;;19.47;100.00;100207.38;5005017;28;20539;-75
2023/10/13 11:53:34;;;;;;;26.55;8.82;;;;;;;19.49;100.00;100208.88;5007957;28;20030;-75
2023/10/13 11:55:59;;;;;;;25.13;8.63;;;;;;;19.55;100.00;100201.84;5009657;28;20026;-75
2023/10/13 11:58:24;;;;;;;22.38;8.00;;;;;;;19.58;100.00;100204.19;4992270;28;20038;-75
2023/10/13 12:11:46;;;;;;;24.88;8.63;;;;;;;19.83;100.00;100182.97;5006834;28;20064;-75
2023/10/13 12:14:16;;;;;;;24.38;8.90;;;;;;;19.85;100.00;100185.50;4989396;28;20505;-75
2023/10/13 12:16:50;;;;;;;31.13;9.68;;;;;;;19.88;100.00;100180.53;4997414;28;20025;-75
2023/10/13 12:19:27;;;;;;;26.58;8.43;;;;;;;19.98;100.00;100174.75;4995370;28;20485;-76
2023/10/13 12:21:57;;;;;;;21.25;8.20;;;;;;;20.02;100.00;100180.69;4989466;28;20499;-75
2023/10/13 12:30:07;;;;;;;22.42;8.00;;;;;;;20.15;99.26;100183.56;4983949;28;20044;-75
2023/10/13 12:32:34;;;;;;;24.08;8.43;;;;;;;20.17;98.77;100177.94;4983087;28;20022;-77
2023/10/13 12:51:40;;;;;;;25.63;8.77;;;;;;;20.30;97.07;100166.31;5000794;28;20241;-77
2023/10/13 12:54:13;;;;;;;21.67;6.95;;;;;;;20.37;92.86;100170.81;5007579;28;20527;-76
2023/10/13 12:56:41;;;;;;;19.77;7.28;;;;;;;20.40;93.34;100155.94;5010509;28;20029;-77
2023/10/13 12:59:09;;;;;;;21.90;8.57;;;;;;;20.40;91.67;100151.31;5010809;28;20093;-77
2023/10/13 13:01:34;;;;;;;23.00;7.20;;;;;;;20.39;93.18;100156.97;5009287;28;20426;-77
2023/10/13 13:04:03;;;;;;;25.13;7.93;;;;;;;20.40;93.21;100169.59;5009308;28;20037;-77
2023/10/13 13:06:31;;;;;;;26.58;8.38;;;;;;;20.40;92.28;100167.69;5010806;28;20517;-76
2023/10/13 13:08:59;;;;;;;22.30;8.30;;;;;;;20.41;91.63;100168.53;4992154;28;20049;-77
2023/10/13 13:11:25;;;;;;;34.50;9.18;;;;;;;20.39;91.84;100160.53;5010818;28;20634;-77
2023/10/13 13:13:51;;;;;;;30.23;8.70;;;;;;;20.44;89.68;100159.97;5009935;28;20030;-76
2023/10/13 13:16:18;;;;;;;18.98;7.18;;;;;;;20.43;90.45;100155.53;5010004;28;20420;-76
2023/10/13 13:18:47;;;;;;;19.73;6.43;;;;;;;20.46;88.83;100160.63;5010603;28;20030;-77
2023/10/13 13:21:12;;;;;;;28.88;7.68;;;;;;;20.47;87.45;100145.94;5009675;28;20033;-77
2023/10/13 13:23:39;;;;;;;21.83;7.40;;;;;;;20.55;86.84;100147.69;4992893;28;20382;-76
2023/10/13 13:26:15;;;;;;;20.80;7.38;;;;;;;20.59;87.03;100151.72;5010250;28;20030;-77
2023/10/13 13:28:45;;;;;;;20.88;6.00;;;;;;;20.62;85.94;100151.31;4990765;28;20030;-77
2023/10/13 13:31:12;;;;;;;22.98;7.25;;;;;;;20.63;86.52;100149.44;5009555;28;20112;-77
2023/10/13 13:33:43;;;;;;;21.23;7.15;;;;;;;20.62;86.88;100147.75;4991189;28;20121;-77
2023/10/13 13:36:15;;;;;;;21.92;7.03;;;;;;;20.59;85.56;100148.97;4990496;28;20025;-77
2023/10/13 13:38:41;;;;;;;20.63;6.32;;;;;;;20.57;86.35;100149.19;5008929;28;20033;-77
2023/10/13 13:41:16;;;;;;;19.42;6.68;;;;;;;20.54;87.19;100152.31;4994406;28;20021;-79
2023/10/13 13:46:16;;;;;;;22.85;6.95;;;;;;;20.53;85.15;100149.78;5030165;28;20045;-81
2023/10/13 13:48:42;;;;;;;22.02;7.45;;;;;;;20.51;87.06;100141.75;5020948;28;20061;-79
2023/10/13 13:51:14;;;;;;;21.23;6.93;;;;;;;20.50;84.68;100148.28;5013713;28;20034;-79
2023/10/13 13:53:50;;;;;;;21.90;6.60;;;;;;;20.56;84.03;100133.84;4995562;28;20021;-80
2023/10/13 13:56:16;;;;;;;19.67;6.85;;;;;;;20.57;84.08;100149.19;5006363;28;20121;-77
2023/10/13 13:58:50;;;;;;;23.05;7.65;;;;;;;20.58;86.80;100137.19;5014090;28;20014;-78
2023/10/13 14:01:21;;;;;;;24.08;6.93;;;;;;;20.58;85.26;100137.19;5011981;28;20013;-80
2023/10/13 14:03:50;;;;;;;17.83;5.90;;;;;;;20.62;84.30;100134.09;4998934;28;20034;-80
2023/10/13 14:06:23;;;;;;;17.58;6.35;;;;;;;20.62;85.42;100139.56;5021365;28;20032;-79
2023/10/13 14:08:56;;;;;;;18.10;6.43;;;;;;;20.58;85.84;100148.13;5016142;28;20026;-80
2023/10/13 14:16:53;;;;;;;20.45;6.80;;;;;;;20.58;84.95;100148.13;5017356;28;20537;-80
2023/10/13 14:19:28;;;;;;;24.08;7.03;;;;;;;20.59;84.34;100149.81;5000021;28;20061;-79
2023/10/13 14:21:57;;;;;;;20.77;6.93;;;;;;;20.59;85.98;100144.34;5003765;28;20037;-80
2023/10/13 14:24:43;;;;;;;21.73;6.35;;;;;;;20.64;84.24;100145.66;4997432;28;20034;-78
2023/10/13 14:27:12;;;;;;;19.23;6.63;;;;;;;20.69;85.89;100149.53;5001450;28;20034;-78
2023/10/13 14:29:42;;;;;;;17.45;6.55;;;;;;;20.73;83.74;100149.97;4999743;28;20026;-79
2023/10/13 14:32:17;;;;;;;21.70;7.07;;;;;;;20.74;83.67;100151.66;5021313;28;20026;-78
2023/10/13 14:34:44;;;;;;;19.60;7.07;;;;;;;20.75;82.21;100132.34;4994874;28;20027;-80
2023/10/13 14:37:13;;;;;;;22.60;7.60;;;;;;;20.76;84.12;100141.38;4997193;28;20033;-79
2023/10/13 14:39:39;;;;;;;27.23;7.78;;;;;;;20.71;84.71;100152.06;4998224;28;20368;-79
2023/10/13 14:42:07;;;;;;;22.80;7.05;;;;;;;20.67;86.07;100140.66;4981421;28;20096;-79
2023/10/13 14:44:33;;;;;;;22.45;7.18;;;;;;;20.64;85.68;100146.50;4978379;28;20026;-80
2023/10/13 14:46:59;;;;;;;22.13;6.35;;;;;;;20.59;86.68;100147.09;4983560;28;20450;-80
2023/10/13 14:49:25;;;;;;;21.05;7.00;;;;;;;20.58;88.23;100142.66;4990561;28;20014;-79
2023/10/13 14:51:50;;;;;;;25.55;7.90;;;;;;;20.55;87.78;100143.06;5014452;28;20343;-80
2023/10/13 14:54:16;;;;;;;19.67;7.70;;;;;;;20.53;87.27;100147.88;5018663;28;20032;-86
2023/10/13 14:56:44;;;;;;;20.52;7.18;;;;;;;20.49;87.17;100143.84;5016546;28;20086;-81
2023/10/13 14:59:17;;;;;;;18.40;6.60;;;;;;;20.45;86.35;100137.06;5003741;28;20026;-80
2023/10/13 15:01:43;;;;;;;21.02;7.53;;;;;;;20.39;87.69;100132.41;5001613;28;20113;-82
2023/10/13 15:04:10;;;;;;;20.70;7.00;;;;;;;20.34;89.29;100129.44;5020879;28;20045;-82
2023/10/13 15:06:36;;;;;;;20.30;6.05;;;;;;;20.32;87.97;100134.22;5022707;28;20029;-82
2023/10/13 15:09:03;;;;;;;22.40;7.05;;;;;;;20.25;88.99;100140.44;5023910;28;20530;-80